Time;durP1;ratioP1;P1;durP2;ratioP2;P2;SDS_P1;SDS_P2;PMS_P1;PMS_P2;Temp;Humidity;BMP_temperature;BMP_pressure;BME280_temperature;BME280_humidity;BME280_pressure;Samples;Min_cycle;Max_cycle;Signal;HPM_P1;HPM_P2
2021/11/08 00:02:17;;;;;;;;;12.00;11.00;;;;;14.02;46.91;98579.06;6186292;28;96749;-68
2021/11/08 00:05:20;;;;;;;;;12.00;10.00;;;;;14.09;46.48;98585.09;6187547;28;96556;-66
2021/11/08 00:08:24;;;;;;;;;12.25;11.00;;;;;14.12;46.39;98589.22;6186377;28;97169;-66
2021/11/08 00:11:27;;;;;;;;;12.00;12.00;;;;;14.13;46.29;98588.13;6184960;28;97446;-67
2021/11/08 00:14:35;;;;;;;;;12.75;11.75;;;;;14.06;46.65;98598.34;6175395;28;96678;-68
2021/11/08 00:17:51;;;;;;;;;10.50;10.50;;;;;14.08;46.32;98585.34;6175882;28;96840;-66
2021/11/08 00:20:55;;;;;;;;;12.20;12.00;;;;;14.11;46.39;98598.41;6186511;28;96470;-69
2021/11/08 00:23:59;;;;;;;;;11.00;11.00;;;;;14.13;46.34;98591.66;6185121;28;97881;-69
2021/11/08 00:27:03;;;;;;;;;13.00;11.40;;;;;14.18;46.38;98596.31;6175973;28;96943;-66
2021/11/08 00:30:07;;;;;;;;;12.00;9.75;;;;;14.21;46.09;98604.78;6172131;28;98428;-68
2021/11/08 00:33:15;;;;;;;;;11.00;10.00;;;;;14.17;46.16;98609.03;6180930;28;97547;-67
2021/11/08 00:36:18;;;;;;;;;10.00;9.75;;;;;14.18;45.99;98616.13;6174486;28;97017;-67
2021/11/08 00:39:23;;;;;;;;;11.80;10.80;;;;;14.17;45.88;98616.38;6183755;28;98569;-66
2021/11/08 00:42:29;;;;;;;;;11.00;9.00;;;;;14.21;45.88;98612.91;6182856;28;96837;-67
2021/11/08 00:45:32;;;;;;;;;11.00;10.00;;;;;14.24;45.88;98617.81;6183082;28;97453;-68
2021/11/08 00:48:37;;;;;;;;;7.60;7.20;;;;;14.22;45.77;98611.81;6178832;28;96884;-69
2021/11/08 00:51:43;;;;;;;;;10.60;10.00;;;;;14.14;45.77;98606.84;6184064;28;98580;-66
2021/11/08 00:54:47;;;;;;;;;9.75;9.00;;;;;14.13;45.68;98628.78;6185009;28;96476;-66
2021/11/08 00:57:53;;;;;;;;;9.00;9.00;;;;;14.19;45.55;98634.03;6185318;28;97482;-67
2021/11/08 01:01:01;;;;;;;;;8.00;8.00;;;;;14.27;45.58;98641.72;6161316;28;97757;-65
2021/11/08 01:04:06;;;;;;;;;9.20;8.00;;;;;14.26;45.40;98633.84;6180793;28;96523;-67
2021/11/08 01:07:10;;;;;;;;;10.00;8.20;;;;;14.26;45.53;98639.28;6170295;28;97617;-65
2021/11/08 01:10:17;;;;;;;;;10.60;10.00;;;;;14.16;45.69;98639.97;6184317;28;97025;-65
2021/11/08 01:13:20;;;;;;;;;8.60;8.60;;;;;14.23;45.40;98643.28;6177671;28;96739;-67
2021/11/08 01:16:25;;;;;;;;;10.00;9.25;;;;;14.27;45.49;98649.84;6176634;28;98489;-65
2021/11/08 01:19:30;;;;;;;;;11.00;9.40;;;;;14.26;45.31;98659.06;6181798;28;96627;-65
2021/11/08 01:22:35;;;;;;;;;10.00;9.00;;;;;14.10;45.70;98649.09;6184526;28;97483;-67
2021/11/08 01:25:39;;;;;;;;;10.00;9.00;;;;;14.12;45.77;98665.13;6180662;28;97469;-68
2021/11/08 01:28:46;;;;;;;;;10.40;9.40;;;;;14.03;45.72;98653.03;6184734;28;98003;-65
2021/11/08 01:31:49;;;;;;;;;8.50;8.50;;;;;14.06;46.02;98663.41;6177742;28;96977;-65
2021/11/08 01:34:54;;;;;;;;;10.00;10.00;;;;;14.02;45.99;98664.97;6176959;28;98436;-67
2021/11/08 01:38:05;;;;;;;;;10.00;9.00;;;;;13.97;46.15;98667.59;6176932;28;97026;-66
2021/11/08 01:41:09;;;;;;;;;11.00;9.80;;;;;13.93;46.20;98669.19;6185998;28;98292;-69
2021/11/08 01:44:13;;;;;;;;;10.00;9.00;;;;;13.98;46.21;98677.34;6200872;28;97927;-68
2021/11/08 01:47:16;;;;;;;;;10.40;10.40;;;;;13.97;46.16;98681.97;6210515;28;98620;-65
2021/11/08 01:50:21;;;;;;;;;8.00;8.00;;;;;13.93;46.16;98680.81;6215148;28;97068;-68
2021/11/08 01:53:25;;;;;;;;;10.20;9.80;;;;;14.00;46.05;98680.66;6195160;28;97026;-67
2021/11/08 01:56:28;;;;;;;;;10.00;10.00;;;;;14.00;46.25;98691.50;6201116;28;96735;-65
2021/11/08 01:59:32;;;;;;;;;10.00;9.00;;;;;13.93;46.14;98683.53;6177830;28;97775;-65
2021/11/08 02:02:37;;;;;;;;;9.40;8.40;;;;;13.97;46.14;98694.72;6206514;28;96821;-68
2021/11/08 02:05:41;;;;;;;;;10.00;9.50;;;;;14.03;46.30;98693.69;6194344;28;97432;-69
2021/11/08 02:08:45;;;;;;;;;13.00;11.00;;;;;14.03;46.09;98686.38;6212586;28;97274;-68
2021/11/08 02:11:49;;;;;;;;;9.00;8.00;;;;;14.09;45.82;98690.81;6169962;28;99604;-68
2021/11/08 02:14:52;;;;;;;;;11.00;9.00;;;;;14.03;46.00;98694.50;6213687;28;96743;-66
2021/11/08 02:17:56;;;;;;;;;9.00;9.00;;;;;14.03;45.88;98699.94;6213140;28;96935;-68
2021/11/08 02:21:02;;;;;;;;;10.00;9.00;;;;;13.98;46.26;98693.63;6212697;28;97584;-69
2021/11/08 02:24:10;;;;;;;;;8.00;8.00;;;;;13.89;46.18;98693.22;6212943;28;96557;-66
2021/11/08 02:27:14;;;;;;;;;10.00;9.00;;;;;13.85;46.38;98701.03;6211708;28;97150;-69
2021/11/08 02:30:18;;;;;;;;;11.00;10.00;;;;;13.84;46.05;98696.66;6195068;28;98715;-69
2021/11/08 02:33:22;;;;;;;;;8.20;8.20;;;;;13.84;46.40;98698.56;6212808;28;96492;-67
2021/11/08 02:36:26;;;;;;;;;8.25;8.00;;;;;13.90;46.15;98705.69;6212097;28;97513;-66
2021/11/08 02:39:34;;;;;;;;;9.00;8.80;;;;;13.92;46.21;98700.03;6194839;28;96588;-67
2021/11/08 02:42:38;;;;;;;;;10.00;9.00;;;;;13.87;46.24;98698.91;6193831;28;98915;-67
2021/11/08 02:45:41;;;;;;;;;8.00;8.00;;;;;13.94;45.88;98695.19;6208858;28;97267;-66
2021/11/08 02:48:46;;;;;;;;;11.00;9.00;;;;;13.85;46.32;98708.34;6198794;28;97041;-69
2021/11/08 02:51:59;;;;;;;;;8.50;6.50;;;;;13.84;46.11;98710.22;6205030;28;97509;-68
2021/11/08 02:55:03;;;;;;;;;8.00;8.00;;;;;13.88;45.85;98714.06;6189993;28;99665;-66
2021/11/08 02:58:06;;;;;;;;;7.40;6.40;;;;;13.88;46.02;98710.53;6212144;28;97416;-67
2021/11/08 03:01:14;;;;;;;;;7.00;7.00;;;;;13.65;45.87;98670.06;6194189;28;97047;-66
2021/11/08 03:04:22;;;;;;;;;8.00;8.00;;;;;13.90;45.69;98716.53;6194325;28;97795;-66
2021/11/08 03:07:31;;;;;;;;;8.40;8.00;;;;;13.84;45.95;98718.34;6213930;28;96532;-65
2021/11/08 03:10:38;;;;;;;;;8.00;7.50;;;;;13.81;45.91;98713.44;6178896;28;97175;-65
2021/11/08 03:13:50;;;;;;;;;7.60;7.60;;;;;13.87;45.82;98728.72;6194116;28;97174;-65
2021/11/08 03:16:56;;;;;;;;;8.75;7.75;;;;;13.88;45.80;98726.78;6193780;28;96731;-66
2021/11/08 03:20:00;;;;;;;;;7.00;7.00;;;;;13.83;45.74;98732.13;6210969;28;97471;-65
2021/11/08 03:23:08;;;;;;;;;9.00;8.00;;;;;13.83;45.66;98730.25;6206546;28;97908;-68
2021/11/08 03:26:24;;;;;;;;;8.00;8.00;;;;;13.75;46.10;98729.84;6211104;28;97074;-67
2021/11/08 03:29:28;;;;;;;;;7.25;7.00;;;;;13.71;46.00;98732.22;6210875;28;97393;-66
2021/11/08 03:32:36;;;;;;;;;7.00;7.00;;;;;13.72;46.06;98733.06;6193335;28;97124;-65
2021/11/08 03:35:41;;;;;;;;;7.00;7.00;;;;;13.69;46.08;98726.22;6211760;28;97367;-67
2021/11/08 03:38:46;;;;;;;;;8.60;7.60;;;;;13.67;46.25;98727.56;6162568;28;99608;-65
2021/11/08 03:41:51;;;;;;;;;8.00;8.00;;;;;13.53;46.39;98720.81;6203386;28;97395;-66
2021/11/08 03:44:54;;;;;;;;;7.00;7.00;;;;;13.54;46.57;98730.56;6195405;28;96688;-65
2021/11/08 03:47:59;;;;;;;;;9.00;8.00;;;;;13.41;46.91;98720.88;6211715;28;97073;-66
2021/11/08 03:51:04;;;;;;;;;7.40;7.00;;;;;13.35;47.12;98721.84;6211378;28;96985;-67
2021/11/08 03:54:11;;;;;;;;;8.00;7.00;;;;;13.27;46.98;98708.69;6203364;28;96522;-66
2021/11/08 03:57:14;;;;;;;;;8.00;8.00;;;;;13.34;47.16;98733.75;6212274;28;97508;-68
2021/11/08 04:00:19;;;;;;;;;9.00;8.00;;;;;13.41;47.06;98731.69;6208728;28;98007;-68
2021/11/08 04:03:23;;;;;;;;;9.00;8.00;;;;;13.48;46.99;98729.66;6210201;28;96713;-67
2021/11/08 04:06:26;;;;;;;;;9.80;9.00;;;;;13.41;47.09;98737.94;6211969;28;97464;-68
2021/11/08 04:09:32;;;;;;;;;10.00;9.00;;;;;13.43;47.29;98740.41;6207999;28;97482;-67
2021/11/08 04:12:37;;;;;;;;;11.40;10.40;;;;;13.44;47.31;98739.31;6203322;28;97314;-65
2021/11/08 04:15:43;;;;;;;;;9.50;8.50;;;;;13.34;47.60;98739.97;6211697;28;97431;-68
2021/11/08 04:18:50;;;;;;;;;8.00;8.00;;;;;13.30;47.83;98735.28;6192724;28;96728;-66
2021/11/08 04:21:53;;;;;;;;;9.00;9.00;;;;;13.31;47.68;98732.34;6185936;28;96782;-66
2021/11/08 04:24:59;;;;;;;;;9.00;8.33;;;;;13.35;47.70;98724.53;6212174;28;97149;-67
2021/11/08 04:28:02;;;;;;;;;11.40;10.00;;;;;13.29;47.73;98728.25;6211158;28;97571;-68
2021/11/08 04:31:07;;;;;;;;;9.00;9.00;;;;;13.34;47.54;98734.56;6209608;28;97074;-66
2021/11/08 04:34:19;;;;;;;;;11.00;10.00;;;;;13.39;47.56;98731.94;6180748;28;98084;-67
2021/11/08 04:40:45;;;;;;;;;10.40;9.00;;;;;13.50;46.99;98742.94;6175957;28;97907;-68
2021/11/08 04:44:01;;;;;;;;;11.00;10.33;;;;;13.44;46.97;98737.44;6192625;28;96954;-66
2021/11/08 04:50:32;;;;;;;;;11.00;11.00;;;;;13.51;46.66;98728.34;6208483;28;97481;-68
2021/11/08 04:53:42;;;;;;;;;10.00;10.00;;;;;13.67;46.59;98743.81;6208933;28;96836;-68
2021/11/08 05:30:29;;;;;;;;;8.75;8.75;;;;;13.81;45.62;98772.22;6214751;28;96922;-67
2021/11/08 05:33:33;;;;;;;;;9.00;8.00;;;;;13.83;45.57;98767.38;6206071;28;97927;-65
2021/11/08 05:36:37;;;;;;;;;10.00;9.00;;;;;13.80;45.18;98773.28;6214605;28;96995;-67
2021/11/08 05:39:46;;;;;;;;;7.00;7.00;;;;;13.73;45.60;98780.75;6195000;28;99030;-68
2021/11/08 05:42:50;;;;;;;;;8.00;7.25;;;;;13.65;45.66;98787.38;6212080;28;97592;-66
2021/11/08 05:45:54;;;;;;;;;10.00;8.80;;;;;13.58;45.61;98794.84;6196138;28;96853;-66
2021/11/08 05:48:58;;;;;;;;;8.00;7.00;;;;;13.50;45.80;98800.66;6213414;28;97237;-68
2021/11/08 05:52:02;;;;;;;;;9.60;9.20;;;;;13.38;46.07;98808.00;6214437;28;97233;-66
2021/11/08 05:55:09;;;;;;;;;9.00;9.00;;;;;13.40;45.76;98809.41;6214252;28;97534;-68
2021/11/08 05:58:24;;;;;;;;;10.00;8.00;;;;;13.35;45.82;98808.47;6213018;28;97440;-66
2021/11/08 06:51:47;;;;;;;;;9.00;8.00;;;;;23.82;26.72;98872.44;6202437;28;96624;-71
2021/11/08 06:54:51;;;;;;;;;11.40;10.00;;;;;24.17;26.17;98866.19;6213752;28;96622;-68
2021/11/08 06:58:01;;;;;;;;;9.00;8.00;;;;;24.56;25.40;98865.50;6177030;28;99214;-67
2021/11/08 07:01:04;;;;;;;;;9.00;7.40;;;;;24.91;25.10;98874.84;6187900;28;96741;-67
2021/11/08 07:04:08;;;;;;;;;10.40;10.00;;;;;24.53;24.84;98877.19;6172510;28;97147;-67
2021/11/08 07:07:14;;;;;;;;;10.00;9.60;;;;;24.30;25.15;98883.78;6202476;28;96548;-64
2021/11/08 07:10:20;;;;;;;;;9.20;9.00;;;;;24.27;25.61;98888.00;6212546;28;97434;-67
2021/11/08 07:13:24;;;;;;;;;9.00;8.00;;;;;23.89;25.42;98897.66;6195976;28;97558;-68
2021/11/08 07:16:27;;;;;;;;;9.00;8.00;;;;;23.82;26.04;98899.97;6212354;28;97645;-67
2021/11/08 07:19:30;;;;;;;;;9.00;9.00;;;;;24.42;25.64;98897.84;6207724;28;97423;-65
2021/11/08 07:22:36;;;;;;;;;10.75;8.75;;;;;25.49;24.34;98902.22;6212468;28;97549;-68
2021/11/08 07:25:39;;;;;;;;;9.75;9.00;;;;;25.96;23.30;98905.31;6203281;28;96991;-66
2021/11/08 07:28:43;;;;;;;;;11.60;11.00;;;;;26.42;23.07;98911.09;6174845;28;97146;-65
2021/11/08 07:31:46;;;;;;;;;11.50;10.50;;;;;26.47;23.00;98918.41;6213785;28;97518;-67
2021/11/08 07:34:49;;;;;;;;;11.20;9.00;;;;;26.15;23.15;98925.97;6192945;28;98575;-66
2021/11/08 07:37:54;;;;;;;;;11.00;11.00;;;;;26.23;22.92;98918.88;6191786;28;98440;-66
2021/11/08 07:40:57;;;;;;;;;10.00;9.00;;;;;26.67;22.46;98923.28;6207821;28;97830;-68
2021/11/08 07:44:01;;;;;;;;;9.00;9.00;;;;;26.27;22.97;98933.69;6210606;28;97488;-67
2021/11/08 07:47:04;;;;;;;;;11.00;10.00;;;;;25.68;23.20;98929.59;6211612;28;96478;-68
2021/11/08 07:50:09;;;;;;;;;9.40;9.40;;;;;26.19;22.98;98940.00;6193895;28;96704;-69
2021/11/08 07:53:13;;;;;;;;;10.60;9.60;;;;;26.73;22.60;98930.28;6204783;28;96761;-65
2021/11/08 07:56:17;;;;;;;;;11.00;9.80;;;;;27.90;21.65;98946.44;6173222;28;97469;-67
2021/11/08 07:59:20;;;;;;;;;10.00;9.00;;;;;28.66;20.78;98954.56;6170065;28;99516;-67
2021/11/08 08:02:23;;;;;;;;;10.00;10.00;;;;;27.26;21.62;98951.22;6180240;28;97829;-67
2021/11/08 08:05:27;;;;;;;;;8.75;8.00;;;;;25.66;23.40;98953.97;6208572;28;97486;-69
2021/11/08 08:08:32;;;;;;;;;8.00;8.00;;;;;24.43;24.95;98951.84;6193506;28;97259;-68
2021/11/08 08:11:35;;;;;;;;;9.00;8.00;;;;;23.18;26.31;98954.03;6177850;28;97293;-69
2021/11/08 08:14:39;;;;;;;;;9.00;9.00;;;;;22.29;27.59;98953.25;6195327;28;97652;-68
2021/11/08 08:17:42;;;;;;;;;9.00;8.50;;;;;21.47;28.88;98953.44;6194848;28;96519;-67
2021/11/08 08:20:45;;;;;;;;;7.00;6.00;;;;;20.69;29.94;98958.25;6177404;28;97127;-67
2021/11/08 08:23:54;;;;;;;;;9.80;8.80;;;;;20.19;30.37;98965.66;6211722;28;98425;-64
2021/11/08 08:27:03;;;;;;;;;7.00;6.00;;;;;19.69;31.41;98968.63;6212990;28;96605;-66
2021/11/08 08:30:08;;;;;;;;;11.40;9.00;;;;;19.21;32.06;98972.81;6195889;28;98358;-68
2021/11/08 08:33:12;;;;;;;;;8.00;7.60;;;;;18.97;32.68;98967.91;6204114;28;97436;-65
2021/11/08 08:36:15;;;;;;;;;7.20;7.00;;;;;18.74;32.98;98978.56;6203576;28;97535;-66
2021/11/08 08:39:21;;;;;;;;;8.00;7.60;;;;;18.46;33.64;98979.88;6211129;28;96659;-68
2021/11/08 08:42:26;;;;;;;;;9.00;8.00;;;;;18.04;34.09;98993.69;6186367;28;97423;-69
2021/11/08 08:45:29;;;;;;;;;9.40;8.00;;;;;17.63;34.90;98989.97;6187658;28;96794;-68
2021/11/08 08:48:33;;;;;;;;;8.00;6.00;;;;;17.26;35.42;99006.31;6188409;28;97951;-70
2021/11/08 08:51:37;;;;;;;;;8.00;7.25;;;;;17.05;35.88;99001.81;6173722;28;98991;-68
2021/11/08 08:54:44;;;;;;;;;8.00;8.00;;;;;16.99;36.08;98997.41;6209440;28;96772;-68
2021/11/08 08:57:48;;;;;;;;;7.00;6.00;;;;;16.96;36.13;98997.94;6210077;28;97426;-68
2021/11/08 09:00:52;;;;;;;;;6.00;6.00;;;;;16.97;35.79;99007.72;6209695;28;96619;-66
2021/11/08 09:03:57;;;;;;;;;7.20;6.00;;;;;16.99;35.88;99000.97;6212516;28;97327;-67
2021/11/08 09:07:01;;;;;;;;;5.20;5.20;;;;;17.07;35.83;99011.38;6193347;28;98452;-69
2021/11/08 09:10:06;;;;;;;;;7.00;6.00;;;;;17.02;35.67;99005.06;6210135;28;97488;-67
2021/11/08 09:13:10;;;;;;;;;7.00;7.00;;;;;17.00;35.89;99010.78;6187671;28;99434;-69
2021/11/08 09:16:14;;;;;;;;;7.25;6.25;;;;;16.93;36.34;99022.97;6201942;28;97435;-67
2021/11/08 09:19:18;;;;;;;;;7.00;7.00;;;;;16.74;36.41;99019.81;6210823;28;97124;-70
2021/11/08 09:22:21;;;;;;;;;7.00;7.00;;;;;16.84;36.26;99019.91;6203002;28;97588;-68
2021/11/08 09:25:28;;;;;;;;;5.00;5.00;;;;;16.84;36.02;99018.00;6192316;28;98019;-68
2021/11/08 09:28:32;;;;;;;;;7.60;6.00;;;;;16.68;36.32;99018.94;6192003;28;97234;-70
2021/11/08 09:31:35;;;;;;;;;5.80;5.00;;;;;16.37;36.06;99015.03;6211212;28;96885;-70
2021/11/08 09:34:45;;;;;;;;;5.00;4.00;;;;;16.51;36.19;99018.19;6203802;28;96598;-70
2021/11/08 09:37:48;;;;;;;;;6.00;5.00;;;;;16.34;36.50;99017.47;6211447;28;97699;-67
2021/11/08 09:40:53;;;;;;;;;4.00;4.00;;;;;16.32;36.69;99020.44;6190767;28;96505;-68
2021/11/08 09:44:00;;;;;;;;;4.00;3.00;;;;;16.29;36.35;99025.56;6202279;28;97530;-66
2021/11/08 09:47:04;;;;;;;;;5.50;4.25;;;;;16.37;36.42;99034.09;6210556;28;97089;-70
2021/11/08 09:50:11;;;;;;;;;4.00;4.00;;;;;16.23;36.55;99026.56;6197193;28;96722;-68
2021/11/08 09:53:16;;;;;;;;;4.00;4.00;;;;;16.06;36.76;99023.94;6211043;28;97564;-67
2021/11/08 09:56:20;;;;;;;;;4.00;4.00;;;;;15.94;36.81;99024.06;6211104;28;98037;-68
2021/11/08 09:59:24;;;;;;;;;3.00;3.00;;;;;16.03;36.51;99019.00;6198052;28;97430;-65
2021/11/08 10:02:27;;;;;;;;;4.00;3.00;;;;;15.94;36.81;99017.81;6206561;28;97491;-67
2021/11/08 10:05:35;;;;;;;;;4.00;4.00;;;;;15.75;36.83;99025.44;6201097;28;97214;-69
2021/11/08 10:08:52;;;;;;;;;4.00;3.00;;;;;15.68;36.72;99024.84;6194513;28;96707;-69
2021/11/08 10:11:57;;;;;;;;;3.50;3.00;;;;;15.59;37.08;99027.13;6214208;28;96400;-70
2021/11/08 10:15:01;;;;;;;;;4.00;4.00;;;;;15.83;36.81;99019.56;6178585;28;96799;-68
2021/11/08 10:18:06;;;;;;;;;2.50;2.50;;;;;15.85;36.67;99016.59;6214836;28;96557;-66
2021/11/08 10:21:12;;;;;;;;;3.00;3.00;;;;;15.96;36.11;99010.22;6216859;28;97117;-66
2021/11/08 10:24:20;;;;;;;;;2.00;2.00;;;;;16.04;37.23;99026.91;6214072;28;97730;-66
2021/11/08 10:27:25;;;;;;;;;2.00;2.00;;;;;16.20;35.83;99013.50;6214395;28;97976;-68
2021/11/08 10:30:33;;;;;;;;;3.00;3.00;;;;;16.28;35.54;99010.31;6196178;28;97256;-66
2021/11/08 10:33:39;;;;;;;;;2.00;1.75;;;;;16.54;35.45;99008.69;6192259;28;97061;-65
2021/11/08 10:36:43;;;;;;;;;3.00;2.00;;;;;16.48;35.02;99005.91;6195968;28;96660;-66
2021/11/08 10:39:47;;;;;;;;;3.60;3.00;;;;;16.75;34.50;99008.66;6213334;28;96681;-69
2021/11/08 10:42:59;;;;;;;;;1.60;1.60;;;;;16.87;34.53;99000.31;6178093;28;98506;-67
2021/11/08 10:46:06;;;;;;;;;2.40;2.40;;;;;17.03;33.65;98993.91;6214747;28;97472;-67
2021/11/08 10:49:13;;;;;;;;;2.00;2.00;;;;;17.24;33.53;99009.34;6197766;28;97313;-65
2021/11/08 10:52:18;;;;;;;;;2.00;2.00;;;;;17.19;33.51;98982.06;6197851;28;97443;-68
2021/11/08 10:55:30;;;;;;;;;2.00;2.00;;;;;17.37;33.07;98999.88;6214685;28;97487;-67
2021/11/08 10:58:35;;;;;;;;;3.00;3.00;;;;;17.54;32.69;99005.97;6207945;28;97189;-65
2021/11/08 11:01:44;;;;;;;;;2.00;2.00;;;;;17.46;32.54;98971.03;6195384;28;96689;-68
2021/11/08 11:04:50;;;;;;;;;2.00;1.00;;;;;17.64;32.24;98999.78;6173391;28;96611;-68
2021/11/08 11:07:55;;;;;;;;;2.00;1.00;;;;;17.76;31.99;99003.13;6213523;28;97400;-67
2021/11/08 11:11:01;;;;;;;;;1.00;1.00;;;;;17.84;31.90;99001.81;6212647;28;97544;-65
2021/11/08 11:14:06;;;;;;;;;1.60;1.00;;;;;17.87;31.85;99007.53;6213960;28;96682;-63
2021/11/08 11:17:12;;;;;;;;;2.00;1.50;;;;;17.98;31.79;99003.78;6192407;28;97577;-67
2021/11/08 11:20:17;;;;;;;;;1.00;1.00;;;;;18.89;30.73;99000.44;6185627;28;97022;-65
2021/11/08 11:23:27;;;;;;;;;1.00;1.00;;;;;19.05;30.10;99004.81;6213664;28;97456;-69
2021/11/08 11:26:35;;;;;;;;;1.00;1.00;;;;;18.87;30.56;99011.63;6212957;28;96627;-67
2021/11/08 11:29:40;;;;;;;;;1.00;1.00;;;;;18.58;30.91;99007.78;6181854;28;97848;-69
2021/11/08 11:32:44;;;;;;;;;1.00;1.00;;;;;18.43;31.07;99022.19;6212410;28;96793;-66
2021/11/08 11:35:50;;;;;;;;;1.00;1.00;;;;;18.25;31.20;98992.66;6213076;28;97271;-66
2021/11/08 11:38:57;;;;;;;;;3.00;2.00;;;;;18.34;31.33;99018.34;6213603;28;97173;-66
2021/11/08 11:42:01;;;;;;;;;1.40;1.00;;;;;18.22;31.31;99025.97;6212794;28;98008;-66
2021/11/08 11:45:07;;;;;;;;;2.00;1.00;;;;;18.06;31.81;99016.06;6194598;28;96720;-67
2021/11/08 11:48:10;;;;;;;;;1.00;1.00;;;;;18.04;31.90;99015.50;6203593;28;97482;-66
2021/11/08 11:51:37;;;;;;;;;2.00;2.00;;;;;17.87;31.94;99010.25;6191417;28;99765;-67
2021/11/08 11:54:41;;;;;;;;;2.00;2.00;;;;;17.72;32.06;99012.91;6207870;28;97095;-65
2021/11/08 11:57:44;;;;;;;;;2.40;2.40;;;;;17.55;32.58;99004.06;6171601;28;98714;-68
2021/11/08 12:00:53;;;;;;;;;2.00;1.00;;;;;17.58;32.82;99001.63;6189164;28;97986;-70
2021/11/08 12:03:57;;;;;;;;;1.00;1.00;;;;;17.48;32.76;99012.47;6203087;28;97389;-69
2021/11/08 12:07:02;;;;;;;;;1.00;1.00;;;;;17.49;32.84;99022.31;6212093;28;97612;-67
2021/11/08 12:10:06;;;;;;;;;1.00;1.00;;;;;17.44;32.79;99005.09;6211717;28;97918;-65
2021/11/08 12:13:15;;;;;;;;;1.00;1.00;;;;;17.40;33.05;99010.22;6193219;28;97748;-67
2021/11/08 12:16:26;;;;;;;;;3.00;1.40;;;;;17.35;32.95;99004.75;6211698;28;96637;-68
2021/11/08 12:19:33;;;;;;;;;1.00;1.00;;;;;17.51;32.63;99009.22;6212357;28;96719;-66
2021/11/08 12:22:38;;;;;;;;;1.00;1.00;;;;;17.90;32.25;98993.34;6211991;28;96863;-66
2021/11/08 12:25:44;;;;;;;;;0.20;0.20;;;;;18.50;31.70;99011.84;6212328;28;97472;-68
2021/11/08 12:28:48;;;;;;;;;1.00;1.00;;;;;18.47;31.51;99006.91;6212823;28;96603;-66
2021/11/08 12:32:03;;;;;;;;;3.00;2.00;;;;;18.34;31.31;99012.06;6211603;28;97866;-68
2021/11/08 12:35:15;;;;;;;;;1.60;1.00;;;;;18.14;31.80;99010.91;6205605;28;96806;-68
2021/11/08 12:38:24;;;;;;;;;1.00;1.00;;;;;17.93;32.14;99009.22;6209135;28;97010;-68
2021/11/08 12:41:34;;;;;;;;;2.00;1.00;;;;;17.83;32.36;98997.44;6199649;28;97440;-67
2021/11/08 12:44:40;;;;;;;;;1.60;1.00;;;;;17.65;32.77;99002.25;6211621;28;97355;-65
2021/11/08 12:47:45;;;;;;;;;1.80;1.80;;;;;17.53;32.89;99011.69;6196009;28;97232;-62
2021/11/08 12:50:53;;;;;;;;;2.00;2.00;;;;;17.21;33.42;99006.28;6193201;28;97934;-67
2021/11/08 12:54:03;;;;;;;;;1.00;1.00;;;;;17.07;33.68;98992.31;6194052;28;96823;-69
2021/11/08 12:57:08;;;;;;;;;3.00;3.00;;;;;17.14;33.89;99011.16;6213262;28;97498;-69
2021/11/08 13:00:19;;;;;;;;;2.00;2.00;;;;;17.11;34.04;99020.66;6212549;28;97487;-66
2021/11/08 13:03:35;;;;;;;;;2.00;2.00;;;;;17.04;34.49;99000.19;6212555;28;97993;-68
2021/11/08 13:06:39;;;;;;;;;2.40;2.00;;;;;16.95;34.65;99008.03;6207044;28;97483;-66
2021/11/08 13:09:45;;;;;;;;;3.00;2.00;;;;;16.70;34.57;98992.28;6211641;28;96986;-65
2021/11/08 13:12:49;;;;;;;;;2.20;2.00;;;;;16.78;34.83;99015.47;6193957;28;98118;-66
2021/11/08 13:16:00;;;;;;;;;2.00;2.00;;;;;16.70;34.93;99011.34;6193359;28;98978;-67
2021/11/08 13:19:08;;;;;;;;;3.00;2.75;;;;;16.67;35.29;99025.44;6208747;28;97379;-64
2021/11/08 13:22:15;;;;;;;;;3.20;3.00;;;;;16.63;35.27;99031.66;6196854;28;97717;-68
2021/11/08 13:25:22;;;;;;;;;2.00;2.00;;;;;16.73;35.35;99029.03;6206366;28;97399;-67
2021/11/08 13:28:32;;;;;;;;;3.00;3.00;;;;;16.78;35.31;99034.53;6211042;28;96535;-68
2021/11/08 13:31:35;;;;;;;;;4.00;3.00;;;;;16.79;35.15;99033.47;6193650;28;97133;-69
2021/11/08 13:34:42;;;;;;;;;3.00;2.60;;;;;16.77;35.24;99035.59;6196661;28;98478;-68
2021/11/08 13:37:45;;;;;;;;;2.25;2.00;;;;;16.83;34.97;99038.13;6215345;28;96770;-68
2021/11/08 13:40:53;;;;;;;;;3.00;3.00;;;;;16.81;35.18;99039.50;6182612;28;96709;-67
2021/11/08 13:44:00;;;;;;;;;4.00;3.00;;;;;16.79;35.12;99034.28;6179198;28;98155;-65
2021/11/08 13:47:03;;;;;;;;;3.25;3.00;;;;;16.74;35.21;99041.59;6215430;28;97968;-67
2021/11/08 13:50:14;;;;;;;;;3.80;3.00;;;;;16.72;35.22;99039.09;6185363;28;97562;-68
2021/11/08 13:53:19;;;;;;;;;3.00;2.00;;;;;16.64;35.31;99042.31;6215049;28;97453;-67
2021/11/08 13:56:22;;;;;;;;;4.00;4.00;;;;;16.64;35.30;99041.47;6215309;28;96542;-65
2021/11/08 13:59:31;;;;;;;;;4.00;3.00;;;;;16.53;35.61;99045.97;6180393;28;99657;-67
2021/11/08 14:02:35;;;;;;;;;4.00;3.00;;;;;16.54;35.49;99046.78;6213583;28;97153;-69
2021/11/08 14:05:50;;;;;;;;;4.00;4.00;;;;;16.45;35.83;99054.59;6184571;28;98015;-68
2021/11/08 14:08:53;;;;;;;;;2.80;2.80;;;;;16.44;36.00;99050.22;6209212;28;96692;-66
2021/11/08 14:12:00;;;;;;;;;3.00;3.00;;;;;16.38;36.06;99049.34;6216395;28;96582;-66
2021/11/08 14:15:05;;;;;;;;;4.00;4.00;;;;;16.28;36.44;99045.69;6199135;28;99693;-67
2021/11/08 14:18:19;;;;;;;;;5.00;4.00;;;;;16.34;36.36;99050.94;6202675;28;97154;-64
2021/11/08 14:21:25;;;;;;;;;5.00;4.00;;;;;16.30;36.53;99048.97;6213798;28;97186;-65
2021/11/08 14:24:32;;;;;;;;;3.00;3.00;;;;;16.27;36.67;99050.28;6189990;28;97944;-66
2021/11/08 14:27:40;;;;;;;;;4.80;3.00;;;;;16.33;36.55;99057.44;6216924;28;96861;-65
2021/11/08 14:30:43;;;;;;;;;6.00;4.80;;;;;16.33;36.72;99060.16;6216557;28;97285;-65
2021/11/08 14:33:47;;;;;;;;;6.00;5.00;;;;;16.28;36.91;99062.81;6192550;28;96551;-66
2021/11/08 14:36:52;;;;;;;;;4.00;4.00;;;;;16.34;36.76;99074.59;6213566;28;96620;-64
2021/11/08 14:39:55;;;;;;;;;5.40;4.00;;;;;16.40;37.04;99073.59;6198729;28;97570;-64
2021/11/08 14:42:59;;;;;;;;;4.20;4.20;;;;;16.34;36.97;99078.13;6176151;28;98515;-66
2021/11/08 14:46:05;;;;;;;;;6.00;5.00;;;;;16.25;37.27;99071.50;6213334;28;96756;-67
2021/11/08 14:49:11;;;;;;;;;7.00;6.00;;;;;16.28;37.19;99072.88;6195872;28;96815;-68
2021/11/08 14:52:15;;;;;;;;;8.40;7.00;;;;;16.16;37.50;99081.19;6204566;28;97412;-67
2021/11/08 14:55:20;;;;;;;;;8.00;7.00;;;;;16.18;37.38;99080.91;6210525;28;97979;-69
2021/11/08 14:58:24;;;;;;;;;6.00;5.00;;;;;16.23;37.39;99081.81;6196083;28;96554;-66
2021/11/08 15:01:28;;;;;;;;;6.40;5.40;;;;;16.25;37.32;99084.28;6195492;28;98562;-67
2021/11/08 15:04:32;;;;;;;;;4.00;4.00;;;;;16.24;37.34;99091.63;6194628;28;97426;-71
2021/11/08 15:07:39;;;;;;;;;6.00;5.50;;;;;16.08;37.58;99076.19;6172747;28;97250;-67
2021/11/08 15:10:47;;;;;;;;;6.00;5.00;;;;;16.21;37.55;99094.84;6199709;28;96743;-69
2021/11/08 15:13:52;;;;;;;;;6.00;5.00;;;;;16.13;37.49;99087.13;6200103;28;96385;-68
2021/11/08 15:16:57;;;;;;;;;6.40;6.00;;;;;16.15;37.65;99095.88;6213622;28;97083;-67
2021/11/08 15:20:15;;;;;;;;;6.00;5.00;;;;;16.16;37.57;99096.69;6195598;28;97364;-66
2021/11/08 15:23:22;;;;;;;;;6.40;6.00;;;;;16.19;37.67;99099.72;6187859;28;98056;-68
2021/11/08 15:26:28;;;;;;;;;6.80;5.00;;;;;16.11;37.84;99100.16;6214456;28;97416;-67
2021/11/08 15:29:33;;;;;;;;;8.00;7.00;;;;;15.99;38.16;99102.16;6194677;28;97487;-66
2021/11/08 15:32:37;;;;;;;;;6.00;6.00;;;;;15.90;38.20;99100.97;6213896;28;96554;-66
2021/11/08 15:35:49;;;;;;;;;5.40;5.00;;;;;15.96;38.34;99110.84;6207757;28;97262;-66
2021/11/08 15:38:56;;;;;;;;;6.60;5.60;;;;;15.97;38.46;99112.50;6183314;28;97058;-71
2021/11/08 15:42:01;;;;;;;;;7.60;6.60;;;;;15.99;38.25;99115.75;6192378;28;96779;-66
2021/11/08 15:45:05;;;;;;;;;8.00;6.20;;;;;16.01;38.55;99113.63;6195389;28;98001;-66
2021/11/08 15:48:09;;;;;;;;;8.60;8.60;;;;;15.94;38.72;99112.97;6207875;28;97765;-66
2021/11/08 15:51:13;;;;;;;;;11.00;8.40;;;;;15.83;39.02;99122.88;6203643;28;97087;-67
2021/11/08 15:54:23;;;;;;;;;10.00;9.00;;;;;15.77;39.37;99123.91;6209811;28;96486;-68
2021/11/08 15:57:27;;;;;;;;;10.40;9.40;;;;;15.72;39.64;99126.53;6182222;28;96690;-66
2021/11/08 16:00:30;;;;;;;;;10.00;10.00;;;;;15.70;39.70;99122.41;6185113;28;97185;-68